sensor_id;sensor_type;location;lat;lon;timestamp;pressure;altitude;pressure_sealevel;temperature;humidity
58879;BME280;44660;42.664;23.266;2023-01-01T00:00:45;95937.72;;;4.69;70.15
58879;BME280;44660;42.664;23.266;2023-01-01T00:03:11;95931.47;;;4.70;70.02
58879;BME280;44660;42.664;23.266;2023-01-01T00:05:37;95938.66;;;4.76;69.73
58879;BME280;44660;42.664;23.266;2023-01-01T00:08:03;95941.63;;;4.81;69.88
58879;BME280;44660;42.664;23.266;2023-01-01T00:10:29;95950.38;;;4.73;70.33
58879;BME280;44660;42.664;23.266;2023-01-01T00:12:55;95954.66;;;4.74;70.34
58879;BME280;44660;42.664;23.266;2023-01-01T00:15:22;95937.44;;;4.64;70.17
58879;BME280;44660;42.664;23.266;2023-01-01T00:17:47;95955.50;;;4.75;70.14
58879;BME280;44660;42.664;23.266;2023-01-01T00:20:12;95961.06;;;4.80;70.20
58879;BME280;44660;42.664;23.266;2023-01-01T00:22:39;95940.38;;;4.69;69.93
58879;BME280;44660;42.664;23.266;2023-01-01T00:25:04;95959.13;;;4.74;70.04
58879;BME280;44660;42.664;23.266;2023-01-01T00:27:30;95927.25;;;4.52;69.92
58879;BME280;44660;42.664;23.266;2023-01-01T00:29:56;95957.97;;;4.68;69.54
58879;BME280;44660;42.664;23.266;2023-01-01T00:32:21;95974.63;;;4.69;69.97
58879;BME280;44660;42.664;23.266;2023-01-01T00:34:47;95891.69;;;4.08;69.87
58879;BME280;44660;42.664;23.266;2023-01-01T00:37:12;95964.78;;;4.54;70.22
58879;BME280;44660;42.664;23.266;2023-01-01T00:39:39;95934.25;;;4.37;70.06
58879;BME280;44660;42.664;23.266;2023-01-01T00:42:05;95964.47;;;4.49;69.96
58879;BME280;44660;42.664;23.266;2023-01-01T00:44:30;95875.25;;;4.06;70.06
58879;BME280;44660;42.664;23.266;2023-01-01T00:46:56;95970.03;;;4.63;69.93
58879;BME280;44660;42.664;23.266;2023-01-01T00:49:21;95969.03;;;4.64;69.82
58879;BME280;44660;42.664;23.266;2023-01-01T00:51:47;95961.53;;;4.44;69.41
58879;BME280;44660;42.664;23.266;2023-01-01T00:54:12;95884.66;;;3.92;70.20
58879;BME280;44660;42.664;23.266;2023-01-01T00:56:37;95969.13;;;4.39;70.46
58879;BME280;44660;42.664;23.266;2023-01-01T00:59:03;95973.03;;;4.43;70.49
58879;BME280;44660;42.664;23.266;2023-01-01T01:01:29;95973.09;;;4.35;70.43
58879;BME280;44660;42.664;23.266;2023-01-01T01:03:54;95976.34;;;4.45;70.55
58879;BME280;44660;42.664;23.266;2023-01-01T01:06:19;95950.44;;;4.09;71.34
58879;BME280;44660;42.664;23.266;2023-01-01T01:08:46;95944.16;;;4.10;71.49
58879;BME280;44660;42.664;23.266;2023-01-01T01:11:20;95977.22;;;4.29;71.32
58879;BME280;44660;42.664;23.266;2023-01-01T01:13:48;95965.84;;;4.37;70.86
58879;BME280;44660;42.664;23.266;2023-01-01T01:16:15;95963.84;;;4.39;70.67
58879;BME280;44660;42.664;23.266;2023-01-01T01:18:41;95965.66;;;4.38;70.62
58879;BME280;44660;42.664;23.266;2023-01-01T01:21:08;95966.34;;;4.32;70.62
58879;BME280;44660;42.664;23.266;2023-01-01T01:23:33;95968.84;;;4.25;70.88
58879;BME280;44660;42.664;23.266;2023-01-01T01:26:18;95954.38;;;4.13;70.92
58879;BME280;44660;42.664;23.266;2023-01-01T01:28:44;95942.19;;;4.12;70.84
58879;BME280;44660;42.664;23.266;2023-01-01T01:31:10;95958.44;;;4.24;70.95
58879;BME280;44660;42.664;23.266;2023-01-01T01:33:36;95931.53;;;4.05;71.10
58879;BME280;44660;42.664;23.266;2023-01-01T01:36:03;95941.88;;;4.15;71.14
58879;BME280;44660;42.664;23.266;2023-01-01T01:38:29;95951.72;;;4.21;71.03
58879;BME280;44660;42.664;23.266;2023-01-01T01:40:54;95924.47;;;3.98;70.94
58879;BME280;44660;42.664;23.266;2023-01-01T01:45:45;95944.19;;;4.02;71.05
58879;BME280;44660;42.664;23.266;2023-01-01T01:48:10;95940.41;;;4.04;71.25
58879;BME280;44660;42.664;23.266;2023-01-01T01:50:39;95959.28;;;4.16;71.29
58879;BME280;44660;42.664;23.266;2023-01-01T01:53:19;95957.00;;;4.13;71.19
58879;BME280;44660;42.664;23.266;2023-01-01T01:55:54;95947.81;;;4.09;71.25
58879;BME280;44660;42.664;23.266;2023-01-01T01:58:21;95942.53;;;4.09;71.31
58879;BME280;44660;42.664;23.266;2023-01-01T02:00:46;95939.28;;;3.99;71.13
58879;BME280;44660;42.664;23.266;2023-01-01T02:03:25;95958.31;;;4.17;71.17
58879;BME280;44660;42.664;23.266;2023-01-01T02:05:51;95956.69;;;4.08;70.95
58879;BME280;44660;42.664;23.266;2023-01-01T02:08:18;95940.91;;;3.91;70.82
58879;BME280;44660;42.664;23.266;2023-01-01T02:10:44;95972.16;;;4.03;71.02
58879;BME280;44660;42.664;23.266;2023-01-01T02:13:10;95983.31;;;4.05;71.45
58879;BME280;44660;42.664;23.266;2023-01-01T02:15:41;95972.16;;;3.95;71.54
58879;BME280;44660;42.664;23.266;2023-01-01T02:18:13;95895.25;;;3.43;71.36
58879;BME280;44660;42.664;23.266;2023-01-01T02:20:48;95983.84;;;4.00;71.74
58879;BME280;44660;42.664;23.266;2023-01-01T02:31:38;95922.19;;;3.62;72.01
58879;BME280;44660;42.664;23.266;2023-01-01T02:34:08;95960.31;;;3.90;71.76
58879;BME280;44660;42.664;23.266;2023-01-01T02:36:41;95966.09;;;3.94;71.52
58879;BME280;44660;42.664;23.266;2023-01-01T02:39:08;95965.25;;;3.93;71.40
58879;BME280;44660;42.664;23.266;2023-01-01T02:41:42;95957.03;;;3.88;71.10
58879;BME280;44660;42.664;23.266;2023-01-01T02:44:10;95941.91;;;3.74;71.38
58879;BME280;44660;42.664;23.266;2023-01-01T02:46:36;95928.44;;;3.60;71.36
58879;BME280;44660;42.664;23.266;2023-01-01T02:49:01;95955.09;;;3.66;71.80
58879;BME280;44660;42.664;23.266;2023-01-01T02:51:50;95964.78;;;3.73;72.11
58879;BME280;44660;42.664;23.266;2023-01-01T02:56:52;95960.84;;;3.78;71.94
58879;BME280;44660;42.664;23.266;2023-01-01T03:18:33;95943.25;;;3.70;71.70
58879;BME280;44660;42.664;23.266;2023-01-01T03:21:03;95965.59;;;3.74;71.93
58879;BME280;44660;42.664;23.266;2023-01-01T03:23:35;95970.38;;;3.70;71.70
58879;BME280;44660;42.664;23.266;2023-01-01T03:26:05;95974.81;;;3.70;71.87
58879;BME280;44660;42.664;23.266;2023-01-01T03:28:40;95952.28;;;3.59;71.36
58879;BME280;44660;42.664;23.266;2023-01-01T03:31:09;95967.25;;;3.67;71.49
58879;BME280;44660;42.664;23.266;2023-01-01T03:33:42;95941.25;;;3.39;71.40
58879;BME280;44660;42.664;23.266;2023-01-01T03:36:12;95967.25;;;3.58;72.03
58879;BME280;44660;42.664;23.266;2023-01-01T03:38:45;95957.22;;;3.46;72.37
58879;BME280;44660;42.664;23.266;2023-01-01T03:41:19;95926.81;;;3.26;72.34
58879;BME280;44660;42.664;23.266;2023-01-01T03:43:52;95954.44;;;3.47;72.44
58879;BME280;44660;42.664;23.266;2023-01-01T03:46:23;95940.44;;;3.38;72.32
58879;BME280;44660;42.664;23.266;2023-01-01T03:48:51;95969.56;;;3.53;72.32
58879;BME280;44660;42.664;23.266;2023-01-01T03:56:51;95965.91;;;3.46;72.68
58879;BME280;44660;42.664;23.266;2023-01-01T04:02:10;95959.34;;;3.42;72.86
58879;BME280;44660;42.664;23.266;2023-01-01T04:04:38;95956.56;;;3.35;72.86
58879;BME280;44660;42.664;23.266;2023-01-01T04:07:04;95971.50;;;3.51;72.58
58879;BME280;44660;42.664;23.266;2023-01-01T04:09:32;95960.34;;;3.41;72.57
58879;BME280;44660;42.664;23.266;2023-01-01T04:11:59;95952.75;;;3.30;72.41
58879;BME280;44660;42.664;23.266;2023-01-01T04:14:35;95974.47;;;3.40;72.77
58879;BME280;44660;42.664;23.266;2023-01-01T04:17:02;95978.25;;;3.37;72.88
58879;BME280;44660;42.664;23.266;2023-01-01T04:19:29;95957.22;;;3.29;72.72
58879;BME280;44660;42.664;23.266;2023-01-01T04:21:55;95953.25;;;3.17;73.08
58879;BME280;44660;42.664;23.266;2023-01-01T04:24:20;95945.69;;;3.14;73.14
58879;BME280;44660;42.664;23.266;2023-01-01T04:26:47;95939.13;;;3.18;73.21
58879;BME280;44660;42.664;23.266;2023-01-01T04:29:12;95966.25;;;3.35;73.63
58879;BME280;44660;42.664;23.266;2023-01-01T04:31:38;95969.03;;;3.33;73.47
58879;BME280;44660;42.664;23.266;2023-01-01T04:34:03;95960.97;;;3.35;73.52
58879;BME280;44660;42.664;23.266;2023-01-01T04:36:29;95973.81;;;3.38;73.29
58879;BME280;44660;42.664;23.266;2023-01-01T04:38:54;95969.84;;;3.25;73.39
58879;BME280;44660;42.664;23.266;2023-01-01T04:41:20;95966.06;;;3.28;73.50
58879;BME280;44660;42.664;23.266;2023-01-01T04:43:46;95965.22;;;3.27;73.22
58879;BME280;44660;42.664;23.266;2023-01-01T04:46:16;95973.78;;;3.30;73.40
58879;BME280;44660;42.664;23.266;2023-01-01T04:48:42;95970.34;;;3.37;73.09
58879;BME280;44660;42.664;23.266;2023-01-01T04:51:08;95976.09;;;3.41;72.79
58879;BME280;44660;42.664;23.266;2023-01-01T04:53:34;95979.06;;;3.38;72.93
58879;BME280;44660;42.664;23.266;2023-01-01T04:56:19;95915.56;;;2.91;73.19
58879;BME280;44660;42.664;23.266;2023-01-01T04:58:46;95978.25;;;3.29;73.02
58879;BME280;44660;42.664;23.266;2023-01-01T05:01:20;95927.44;;;3.04;72.90
58879;BME280;44660;42.664;23.266;2023-01-01T05:03:46;95976.09;;;3.16;72.95
58879;BME280;44660;42.664;23.266;2023-01-01T05:06:13;95965.88;;;3.05;72.82
58879;BME280;44660;42.664;23.266;2023-01-01T05:08:40;95655.91;;;1.20;72.49
58879;BME280;44660;42.664;23.266;2023-01-01T05:11:21;95961.09;;;3.08;72.63
58879;BME280;44660;42.664;23.266;2023-01-01T05:13:47;95984.94;;;3.23;72.57
58879;BME280;44660;42.664;23.266;2023-01-01T05:16:15;95980.34;;;3.17;72.71
58879;BME280;44660;42.664;23.266;2023-01-01T05:18:42;95991.06;;;3.24;72.83
58879;BME280;44660;42.664;23.266;2023-01-01T05:21:10;95991.69;;;3.18;72.72
58879;BME280;44660;42.664;23.266;2023-01-01T05:23:36;95955.50;;;2.95;73.10
58879;BME280;44660;42.664;23.266;2023-01-01T05:26:28;95987.75;;;3.22;72.73
58879;BME280;44660;42.664;23.266;2023-01-01T05:28:55;95993.69;;;3.24;72.67
58879;BME280;44660;42.664;23.266;2023-01-01T05:31:23;95943.03;;;2.97;72.31
58879;BME280;44660;42.664;23.266;2023-01-01T05:33:50;95985.59;;;3.17;72.56
58879;BME280;44660;42.664;23.266;2023-01-01T05:36:19;95991.88;;;3.24;71.96
58879;BME280;44660;42.664;23.266;2023-01-01T05:38:45;95999.06;;;3.14;72.67
58879;BME280;44660;42.664;23.266;2023-01-01T05:41:13;95975.69;;;2.94;72.90
58879;BME280;44660;42.664;23.266;2023-01-01T05:43:39;96000.72;;;3.15;72.50
58879;BME280;44660;42.664;23.266;2023-01-01T05:46:09;95960.88;;;2.85;72.48
58879;BME280;44660;42.664;23.266;2023-01-01T05:48:35;96000.22;;;3.12;72.61
58879;BME280;44660;42.664;23.266;2023-01-01T05:51:15;96000.06;;;3.13;72.78
58879;BME280;44660;42.664;23.266;2023-01-01T05:53:41;95981.94;;;3.02;72.96
58879;BME280;44660;42.664;23.266;2023-01-01T05:56:09;95987.88;;;3.12;73.25
58879;BME280;44660;42.664;23.266;2023-01-01T05:58:35;95999.75;;;3.16;72.95
58879;BME280;44660;42.664;23.266;2023-01-01T06:01:13;95955.97;;;2.82;73.31
58879;BME280;44660;42.664;23.266;2023-01-01T06:03:40;95997.09;;;3.08;73.29
58879;BME280;44660;42.664;23.266;2023-01-01T06:06:09;96000.50;;;3.00;73.35
58879;BME280;44660;42.664;23.266;2023-01-01T06:08:35;95978.63;;;2.83;73.60
58879;BME280;44660;42.664;23.266;2023-01-01T06:11:02;95981.94;;;2.93;73.65
58879;BME280;44660;42.664;23.266;2023-01-01T06:13:28;95964.19;;;2.87;73.59
58879;BME280;44660;42.664;23.266;2023-01-01T06:15:55;95972.56;;;2.99;73.05
58879;BME280;44660;42.664;23.266;2023-01-01T06:18:21;95989.53;;;3.13;72.70
58879;BME280;44660;42.664;23.266;2023-01-01T06:20:46;95998.72;;;3.09;72.96
58879;BME280;44660;42.664;23.266;2023-01-01T06:23:12;95927.47;;;2.61;72.87
58879;BME280;44660;42.664;23.266;2023-01-01T06:25:37;96011.03;;;3.08;73.04
58879;BME280;44660;42.664;23.266;2023-01-01T06:28:03;96005.81;;;3.25;72.82
58879;BME280;44660;42.664;23.266;2023-01-01T06:30:28;95988.91;;;3.19;72.59
58879;BME280;44660;42.664;23.266;2023-01-01T06:32:56;95991.53;;;3.19;72.27
58879;BME280;44660;42.664;23.266;2023-01-01T06:35:21;96011.91;;;3.34;72.34
58879;BME280;44660;42.664;23.266;2023-01-01T06:37:46;95987.91;;;3.29;72.26
58879;BME280;44660;42.664;23.266;2023-01-01T06:40:12;96024.44;;;3.40;72.16
58879;BME280;44660;42.664;23.266;2023-01-01T06:42:38;96029.22;;;3.45;71.95
58879;BME280;44660;42.664;23.266;2023-01-01T06:45:04;96027.06;;;3.40;72.22
58879;BME280;44660;42.664;23.266;2023-01-01T06:47:33;96028.06;;;3.47;72.58
58879;BME280;44660;42.664;23.266;2023-01-01T06:49:59;96035.63;;;3.50;72.70
58879;BME280;44660;42.664;23.266;2023-01-01T06:52:24;96036.28;;;3.60;72.67
58879;BME280;44660;42.664;23.266;2023-01-01T06:54:50;96025.63;;;3.62;72.48
58879;BME280;44660;42.664;23.266;2023-01-01T06:57:15;96038.13;;;3.76;72.14
58879;BME280;44660;42.664;23.266;2023-01-01T06:59:41;96020.03;;;3.65;71.79
58879;BME280;44660;42.664;23.266;2023-01-01T07:02:09;96034.03;;;3.82;71.52
58879;BME280;44660;42.664;23.266;2023-01-01T07:04:35;96045.19;;;4.01;71.34
58879;BME280;44660;42.664;23.266;2023-01-01T07:07:00;95977.75;;;3.50;71.67
58879;BME280;44660;42.664;23.266;2023-01-01T07:09:26;96022.81;;;3.88;71.98
58879;BME280;44660;42.664;23.266;2023-01-01T07:11:51;96049.47;;;4.02;72.05
58879;BME280;44660;42.664;23.266;2023-01-01T07:14:17;96047.00;;;4.08;72.10
58879;BME280;44660;42.664;23.266;2023-01-01T07:16:42;95960.69;;;3.71;71.69
58879;BME280;44660;42.664;23.266;2023-01-01T07:19:08;96011.66;;;4.03;71.92
58879;BME280;44660;42.664;23.266;2023-01-01T07:21:44;96046.81;;;4.35;71.55
58879;BME280;44660;42.664;23.266;2023-01-01T07:24:13;95989.72;;;4.19;71.44
58879;BME280;44660;42.664;23.266;2023-01-01T07:26:39;95997.44;;;4.29;71.34
58879;BME280;44660;42.664;23.266;2023-01-01T07:29:08;96031.63;;;4.62;70.96
58879;BME280;44660;42.664;23.266;2023-01-01T07:31:38;95945.00;;;4.11;71.22
58879;BME280;44660;42.664;23.266;2023-01-01T07:34:05;95985.59;;;4.33;71.30
58879;BME280;44660;42.664;23.266;2023-01-01T07:36:31;96041.13;;;4.71;71.91
58879;BME280;44660;42.664;23.266;2023-01-01T07:38:57;96031.09;;;4.74;71.64
58879;BME280;44660;42.664;23.266;2023-01-01T07:41:22;96009.19;;;4.74;71.01
58879;BME280;44660;42.664;23.266;2023-01-01T07:43:48;95972.34;;;4.57;71.17
58879;BME280;44660;42.664;23.266;2023-01-01T07:46:14;96038.38;;;5.12;71.27
58879;BME280;44660;42.664;23.266;2023-01-01T07:48:43;96047.47;;;5.41;70.65
58879;BME280;44660;42.664;23.266;2023-01-01T07:51:09;96045.94;;;5.70;69.82
58879;BME280;44660;42.664;23.266;2023-01-01T07:53:34;96040.91;;;6.30;67.84
58879;BME280;44660;42.664;23.266;2023-01-01T07:56:00;96020.13;;;7.16;65.08
58879;BME280;44660;42.664;23.266;2023-01-01T07:58:25;96031.66;;;8.32;62.21
58879;BME280;44660;42.664;23.266;2023-01-01T08:00:51;96011.81;;;9.20;59.18
58879;BME280;44660;42.664;23.266;2023-01-01T08:03:16;96026.94;;;10.28;55.64
58879;BME280;44660;42.664;23.266;2023-01-01T08:05:42;95988.19;;;10.99;53.22
58879;BME280;44660;42.664;23.266;2023-01-01T08:08:08;96024.63;;;12.28;50.38
58879;BME280;44660;42.664;23.266;2023-01-01T08:10:34;95993.31;;;13.04;47.14
58879;BME280;44660;42.664;23.266;2023-01-01T08:13:00;96020.94;;;13.96;45.60
58879;BME280;44660;42.664;23.266;2023-01-01T08:15:26;96024.56;;;14.92;43.24
58879;BME280;44660;42.664;23.266;2023-01-01T08:17:59;96036.84;;;15.81;41.07
58879;BME280;44660;42.664;23.266;2023-01-01T08:20:26;96028.63;;;15.99;39.79
58879;BME280;44660;42.664;23.266;2023-01-01T08:22:52;96033.19;;;15.99;40.02
58879;BME280;44660;42.664;23.266;2023-01-01T08:25:18;96038.44;;;16.74;38.93
58879;BME280;44660;42.664;23.266;2023-01-01T08:27:43;96034.81;;;17.63;37.41
58879;BME280;44660;42.664;23.266;2023-01-01T08:30:10;96036.41;;;18.09;35.24
58879;BME280;44660;42.664;23.266;2023-01-01T08:32:36;96037.13;;;18.26;35.12
58879;BME280;44660;42.664;23.266;2023-01-01T08:35:02;96019.03;;;18.22;34.79
58879;BME280;44660;42.664;23.266;2023-01-01T08:37:27;96026.03;;;18.50;34.78
58879;BME280;44660;42.664;23.266;2023-01-01T08:39:53;96023.19;;;19.00;33.37
58879;BME280;44660;42.664;23.266;2023-01-01T08:42:18;96038.00;;;18.32;34.53
58879;BME280;44660;42.664;23.266;2023-01-01T08:44:44;96025.25;;;18.22;34.64
58879;BME280;44660;42.664;23.266;2023-01-01T08:47:23;96028.47;;;18.89;33.98
58879;BME280;44660;42.664;23.266;2023-01-01T08:49:50;95999.25;;;18.71;33.80
58879;BME280;44660;42.664;23.266;2023-01-01T08:52:16;96030.88;;;19.29;33.04
58879;BME280;44660;42.664;23.266;2023-01-01T08:54:42;96010.09;;;19.87;32.12
58879;BME280;44660;42.664;23.266;2023-01-01T08:57:07;96019.34;;;20.33;31.63
58879;BME280;44660;42.664;23.266;2023-01-01T08:59:34;95988.81;;;20.53;31.32
58879;BME280;44660;42.664;23.266;2023-01-01T09:01:59;95986.38;;;20.67;30.33
58879;BME280;44660;42.664;23.266;2023-01-01T09:04:25;95987.47;;;20.04;31.00
58879;BME280;44660;42.664;23.266;2023-01-01T09:06:51;95953.44;;;20.03;30.75
58879;BME280;44660;42.664;23.266;2023-01-01T09:09:16;96007.19;;;20.87;30.56
58879;BME280;44660;42.664;23.266;2023-01-01T09:11:53;96003.41;;;20.93;30.05
58879;BME280;44660;42.664;23.266;2023-01-01T09:14:19;95975.69;;;21.37;29.61
58879;BME280;44660;42.664;23.266;2023-01-01T09:16:44;95973.19;;;22.01;28.34
58879;BME280;44660;42.664;23.266;2023-01-01T09:19:10;95906.91;;;21.54;28.17
58879;BME280;44660;42.664;23.266;2023-01-01T09:21:36;95985.97;;;22.41;27.66
58879;BME280;44660;42.664;23.266;2023-01-01T09:24:01;95977.91;;;22.25;27.93
58879;BME280;44660;42.664;23.266;2023-01-01T09:26:27;95952.72;;;22.30;27.77
58879;BME280;44660;42.664;23.266;2023-01-01T09:28:52;95919.94;;;22.61;27.17
58879;BME280;44660;42.664;23.266;2023-01-01T09:31:17;95947.59;;;22.87;26.83
58879;BME280;44660;42.664;23.266;2023-01-01T09:33:43;95968.31;;;23.02;26.77
58879;BME280;44660;42.664;23.266;2023-01-01T09:38:38;95957.16;;;22.79;26.92
58879;BME280;44660;42.664;23.266;2023-01-01T09:46:00;95956.56;;;24.70;24.81
58879;BME280;44660;42.664;23.266;2023-01-01T09:48:28;95959.88;;;24.15;24.93
58879;BME280;44660;42.664;23.266;2023-01-01T09:50:54;95939.94;;;24.71;24.33
58879;BME280;44660;42.664;23.266;2023-01-01T09:53:36;95930.50;;;24.83;24.71
58879;BME280;44660;42.664;23.266;2023-01-01T09:56:13;95938.34;;;25.68;23.31
58879;BME280;44660;42.664;23.266;2023-01-01T09:58:39;95948.06;;;25.46;23.86
58879;BME280;44660;42.664;23.266;2023-01-01T10:04:18;95931.91;;;26.23;22.46
58879;BME280;44660;42.664;23.266;2023-01-01T10:07:17;95933.47;;;25.79;23.18
58879;BME280;44660;42.664;23.266;2023-01-01T10:15:26;95928.28;;;25.13;23.55
58879;BME280;44660;42.664;23.266;2023-01-01T10:17:58;95931.09;;;25.07;23.49
58879;BME280;44660;42.664;23.266;2023-01-01T10:20:36;95908.75;;;25.24;23.40
58879;BME280;44660;42.664;23.266;2023-01-01T10:23:24;95931.19;;;26.85;22.24
58879;BME280;44660;42.664;23.266;2023-01-01T10:25:51;95930.06;;;27.18;22.60
58879;BME280;44660;42.664;23.266;2023-01-01T10:28:24;95926.84;;;26.76;22.37
58879;BME280;44660;42.664;23.266;2023-01-01T10:30:55;95919.22;;;26.95;22.34
58879;BME280;44660;42.664;23.266;2023-01-01T10:33:29;95880.31;;;25.45;22.81
58879;BME280;44660;42.664;23.266;2023-01-01T10:35:54;95916.47;;;24.42;24.35
58879;BME280;44660;42.664;23.266;2023-01-01T10:38:24;95924.13;;;23.02;26.39
58879;BME280;44660;42.664;23.266;2023-01-01T10:41:02;95896.13;;;22.28;27.59
58879;BME280;44660;42.664;23.266;2023-01-01T10:43:29;95873.50;;;20.48;30.30
58879;BME280;44660;42.664;23.266;2023-01-01T10:45:55;95904.84;;;20.03;31.32
58879;BME280;44660;42.664;23.266;2023-01-01T10:48:22;95902.44;;;20.12;32.04
58879;BME280;44660;42.664;23.266;2023-01-01T10:51:15;95903.34;;;19.23;32.22
58879;BME280;44660;42.664;23.266;2023-01-01T10:53:48;95885.22;;;18.60;33.12
58879;BME280;44660;42.664;23.266;2023-01-01T10:56:18;95873.50;;;17.96;34.20
58879;BME280;44660;42.664;23.266;2023-01-01T11:01:22;95805.50;;;17.36;35.01
58879;BME280;44660;42.664;23.266;2023-01-01T11:06:22;95881.09;;;17.17;36.57
58879;BME280;44660;42.664;23.266;2023-01-01T11:08:51;95864.50;;;16.59;37.36
58879;BME280;44660;42.664;23.266;2023-01-01T11:13:58;95880.66;;;17.30;36.18
58879;BME280;44660;42.664;23.266;2023-01-01T11:16:26;95860.69;;;17.21;39.01
58879;BME280;44660;42.664;23.266;2023-01-01T11:19:01;95844.72;;;16.87;36.96
58879;BME280;44660;42.664;23.266;2023-01-01T11:21:27;95842.06;;;16.48;38.54
58879;BME280;44660;42.664;23.266;2023-01-01T11:24:18;95876.28;;;16.19;38.58
58879;BME280;44660;42.664;23.266;2023-01-01T11:26:44;95786.06;;;15.27;39.18
58879;BME280;44660;42.664;23.266;2023-01-01T11:29:26;95864.59;;;15.91;39.07
58879;BME280;44660;42.664;23.266;2023-01-01T11:31:52;95835.97;;;15.45;39.60
58879;BME280;44660;42.664;23.266;2023-01-01T11:39:43;95820.16;;;16.78;38.03
58879;BME280;44660;42.664;23.266;2023-01-01T11:42:17;95815.38;;;17.03;37.24
58879;BME280;44660;42.664;23.266;2023-01-01T11:44:45;95813.69;;;16.96;37.37
58879;BME280;44660;42.664;23.266;2023-01-01T11:47:32;95840.03;;;17.22;37.17
58879;BME280;44660;42.664;23.266;2023-01-01T11:50:05;95833.44;;;17.35;37.40
58879;BME280;44660;42.664;23.266;2023-01-01T11:52:41;95819.25;;;16.68;37.96
58879;BME280;44660;42.664;23.266;2023-01-01T11:55:15;95835.28;;;16.62;39.61
58879;BME280;44660;42.664;23.266;2023-01-01T12:00:33;95828.41;;;16.72;39.21
58879;BME280;44660;42.664;23.266;2023-01-01T12:06:05;95767.63;;;16.38;40.84
58879;BME280;44660;42.664;23.266;2023-01-01T12:08:39;95833.97;;;17.37;38.69
58879;BME280;44660;42.664;23.266;2023-01-01T12:11:15;95819.09;;;17.56;37.31
58879;BME280;44660;42.664;23.266;2023-01-01T12:13:47;95802.81;;;17.36;37.09
58879;BME280;44660;42.664;23.266;2023-01-01T12:16:49;95818.13;;;17.08;37.78
58879;BME280;44660;42.664;23.266;2023-01-01T12:21:58;95806.75;;;17.01;38.75
58879;BME280;44660;42.664;23.266;2023-01-01T12:24:36;95795.75;;;16.80;38.31
58879;BME280;44660;42.664;23.266;2023-01-01T12:30:03;95809.63;;;17.21;38.18
58879;BME280;44660;42.664;23.266;2023-01-01T12:44:15;95818.91;;;17.95;37.40
58879;BME280;44660;42.664;23.266;2023-01-01T12:47:07;95806.19;;;18.28;36.42
58879;BME280;44660;42.664;23.266;2023-01-01T12:57:33;95786.19;;;18.72;36.26
58879;BME280;44660;42.664;23.266;2023-01-01T13:00:03;95788.66;;;18.84;35.95
58879;BME280;44660;42.664;23.266;2023-01-01T13:02:37;95800.63;;;19.24;35.41
58879;BME280;44660;42.664;23.266;2023-01-01T13:05:17;95769.34;;;19.13;34.83
58879;BME280;44660;42.664;23.266;2023-01-01T13:07:47;95790.66;;;19.30;34.98
58879;BME280;44660;42.664;23.266;2023-01-01T13:10:34;95711.03;;;18.71;35.59
58879;BME280;44660;42.664;23.266;2023-01-01T13:13:02;95764.50;;;19.10;35.00
58879;BME280;44660;42.664;23.266;2023-01-01T13:18:31;95800.09;;;19.33;34.82
58879;BME280;44660;42.664;23.266;2023-01-01T13:21:03;95775.84;;;19.28;34.78
58879;BME280;44660;42.664;23.266;2023-01-01T13:39:59;95790.50;;;18.79;35.06
58879;BME280;44660;42.664;23.266;2023-01-01T13:45:14;95768.41;;;18.13;36.29
58879;BME280;44660;42.664;23.266;2023-01-01T13:53:16;95801.97;;;17.35;38.33
58879;BME280;44660;42.664;23.266;2023-01-01T13:56:10;95814.25;;;16.98;39.03
58879;BME280;44660;42.664;23.266;2023-01-01T13:58:58;95807.88;;;16.60;40.66
58879;BME280;44660;42.664;23.266;2023-01-01T14:01:39;95812.72;;;16.41;41.03
58879;BME280;44660;42.664;23.266;2023-01-01T14:04:33;95788.84;;;16.18;41.99
58879;BME280;44660;42.664;23.266;2023-01-01T14:07:10;95801.34;;;16.12;42.15
58879;BME280;44660;42.664;23.266;2023-01-01T14:09:40;95804.63;;;15.80;42.53
58879;BME280;44660;42.664;23.266;2023-01-01T14:12:15;95755.56;;;15.28;42.74
58879;BME280;44660;42.664;23.266;2023-01-01T14:14:41;95726.63;;;14.96;43.24
58879;BME280;44660;42.664;23.266;2023-01-01T14:17:06;95730.00;;;14.92;43.52
58879;BME280;44660;42.664;23.266;2023-01-01T14:19:33;95807.22;;;15.12;44.03
58879;BME280;44660;42.664;23.266;2023-01-01T14:21:59;95796.69;;;14.76;44.66
58879;BME280;44660;42.664;23.266;2023-01-01T14:24:25;95807.19;;;14.66;45.43
58879;BME280;44660;42.664;23.266;2023-01-01T14:26:53;95813.59;;;14.53;45.94
58879;BME280;44660;42.664;23.266;2023-01-01T14:29:26;95812.69;;;14.35;46.11
58879;BME280;44660;42.664;23.266;2023-01-01T14:31:53;95791.09;;;14.01;46.76
58879;BME280;44660;42.664;23.266;2023-01-01T14:34:25;95811.47;;;14.02;46.84
58879;BME280;44660;42.664;23.266;2023-01-01T14:36:54;95757.78;;;13.57;47.21
58879;BME280;44660;42.664;23.266;2023-01-01T14:39:31;95824.69;;;13.74;47.76
58879;BME280;44660;42.664;23.266;2023-01-01T14:42:04;95746.19;;;13.09;48.23
58879;BME280;44660;42.664;23.266;2023-01-01T14:44:42;95785.91;;;13.17;48.66
58879;BME280;44660;42.664;23.266;2023-01-01T14:47:25;95822.56;;;13.10;49.75
58879;BME280;44660;42.664;23.266;2023-01-01T14:49:52;95835.41;;;13.01;50.25
58879;BME280;44660;42.664;23.266;2023-01-01T14:52:26;95835.38;;;12.89;50.27
58879;BME280;44660;42.664;23.266;2023-01-01T14:54:55;95831.19;;;12.81;50.60
58879;BME280;44660;42.664;23.266;2023-01-01T14:57:25;95829.78;;;12.60;50.98
58879;BME280;44660;42.664;23.266;2023-01-01T14:59:51;95828.38;;;12.39;51.64
58879;BME280;44660;42.664;23.266;2023-01-01T15:02:29;95837.56;;;12.24;51.86
58879;BME280;44660;42.664;23.266;2023-01-01T15:04:56;95738.31;;;11.41;52.41
58879;BME280;44660;42.664;23.266;2023-01-01T15:09:51;95811.66;;;11.37;53.82
58879;BME280;44660;42.664;23.266;2023-01-01T15:12:18;95835.91;;;11.29;54.83
58879;BME280;44660;42.664;23.266;2023-01-01T15:14:46;95826.63;;;11.06;55.10
58879;BME280;44660;42.664;23.266;2023-01-01T15:17:14;95825.91;;;10.92;55.54